Time;durP1;ratioP1;P1;durP2;ratioP2;P2;SDS_P1;SDS_P2;PMS_P1;PMS_P2;Temp;Humidity;BMP_temperature;BMP_pressure;BME280_temperature;BME280_humidity;BME280_pressure;Samples;Min_cycle;Max_cycle;Signal;HPM_P1;HPM_P2
2021/12/19 00:01:56;;;;;;;17.02;6.07;;;8.10;99.90;;;;;;5032034;28;20553;-72
2021/12/19 00:08:28;;;;;;;15.35;5.30;;;8.10;99.90;;;;;;5032051;28;20051;-75
2021/12/19 00:09:58;;;;;;;15.35;6.53;;;8.10;99.90;;;;;;5031981;28;20060;-72
2021/12/19 00:12:23;;;;;;;20.65;7.15;;;8.10;99.90;;;;;;5014583;28;20049;-73
2021/12/19 00:14:49;;;;;;;9.90;5.63;;;8.10;99.90;;;;;;5032096;28;20038;-73
2021/12/19 00:17:15;;;;;;;19.95;7.05;;;8.00;99.90;;;;;;5032012;28;20070;-72
2021/12/19 00:19:40;;;;;;;16.83;7.03;;;8.10;99.90;;;;;;5032132;28;20375;-74
2021/12/19 00:22:06;;;;;;;16.90;7.57;;;8.10;99.90;;;;;;5031877;28;20773;-74
2021/12/19 00:24:32;;;;;;;17.77;7.78;;;7.80;99.90;;;;;;5032110;28;20042;-72
2021/12/19 00:26:57;;;;;;;20.25;8.18;;;8.20;99.90;;;;;;5033160;28;20041;-73
2021/12/19 00:29:23;;;;;;;16.13;8.32;;;8.60;99.90;;;;;;5035658;28;20045;-73
2021/12/19 00:31:49;;;;;;;14.27;7.95;;;8.10;99.90;;;;;;5035427;28;20115;-73
2021/12/19 00:34:15;;;;;;;17.75;7.72;;;8.10;99.90;;;;;;5035193;28;20048;-72
2021/12/19 00:36:42;;;;;;;15.73;7.22;;;8.10;99.90;;;;;;5035637;28;20125;-73
2021/12/19 00:39:08;;;;;;;17.80;7.43;;;8.20;99.90;;;;;;5035445;28;20095;-72
2021/12/19 00:41:34;;;;;;;14.27;7.72;;;8.20;99.90;;;;;;5035692;28;20048;-73
2021/12/19 00:44:10;;;;;;;13.18;5.32;;;8.20;99.90;;;;;;5017705;28;20053;-74
2021/12/19 00:46:52;;;;;;;13.45;4.97;;;8.10;99.90;;;;;;5035233;28;20119;-72
2021/12/19 00:49:22;;;;;;;11.27;4.63;;;8.10;99.90;;;;;;5035839;28;20053;-73
2021/12/19 00:51:48;;;;;;;12.75;3.45;;;8.10;99.90;;;;;;5035424;28;20053;-73
2021/12/19 00:54:14;;;;;;;10.05;3.50;;;8.10;99.90;;;;;;5034804;28;20107;-73
2021/12/19 00:56:43;;;;;;;6.57;2.33;;;8.10;99.90;;;;;;5034748;28;20346;-72
2021/12/19 00:59:09;;;;;;;4.93;2.10;;;;;;;;;;5034978;28;20129;-72
2021/12/19 01:01:36;;;;;;;5.93;1.92;;;8.00;99.90;;;;;;5035019;28;20041;-73
2021/12/19 01:04:10;;;;;;;3.92;1.33;;;7.90;99.90;;;;;;5034661;28;20048;-74
2021/12/19 01:06:37;;;;;;;5.60;0.95;;;7.90;99.90;;;;;;5034719;28;20049;-73
2021/12/19 01:09:04;;;;;;;2.28;0.45;;;7.90;99.90;;;;;;5017115;28;20045;-72
2021/12/19 01:11:29;;;;;;;2.42;0.70;;;7.90;99.90;;;;;;5034762;28;20103;-72
2021/12/19 01:13:56;;;;;;;6.45;0.70;;;7.80;99.90;;;;;;5034578;28;20049;-73
2021/12/19 01:16:22;;;;;;;2.88;0.60;;;7.80;99.90;;;;;;5034760;28;20110;-73
2021/12/19 01:18:48;;;;;;;1.98;0.70;;;7.80;99.90;;;;;;5034773;28;20137;-71
2021/12/19 01:21:14;;;;;;;4.07;0.80;;;7.80;99.90;;;;;;5034998;28;20346;-74
2021/12/19 01:23:40;;;;;;;2.35;0.55;;;7.80;99.90;;;;;;5034473;28;20451;-72
2021/12/19 01:26:05;;;;;;;5.15;0.68;;;7.80;99.90;;;;;;5034756;28;20037;-72
2021/12/19 01:28:31;;;;;;;5.75;0.80;;;7.80;99.90;;;;;;5034428;28;20033;-74
2021/12/19 01:30:57;;;;;;;5.03;1.05;;;7.80;99.90;;;;;;5016877;28;20037;-72
2021/12/19 01:33:22;;;;;;;3.83;1.08;;;7.80;99.90;;;;;;5034640;28;20041;-74
2021/12/19 01:35:48;;;;;;;6.88;0.95;;;7.80;99.90;;;;;;5034871;28;20060;-74
2021/12/19 01:38:14;;;;;;;6.28;1.08;;;7.80;99.90;;;;;;5033514;28;20133;-74
2021/12/19 01:40:39;;;;;;;4.65;1.02;;;7.80;99.90;;;;;;5034363;28;20132;-74
2021/12/19 01:43:05;;;;;;;8.07;1.15;;;7.80;99.90;;;;;;5034602;28;20051;-74
2021/12/19 01:45:35;;;;;;;3.28;1.20;;;7.80;99.90;;;;;;5034395;28;20076;-72
2021/12/19 01:48:03;;;;;;;5.03;1.10;;;7.80;99.90;;;;;;5034122;28;20034;-73
2021/12/19 01:50:31;;;;;;;5.32;1.00;;;7.70;99.90;;;;;;5034377;28;20049;-73
2021/12/19 01:52:58;;;;;;;9.40;1.27;;;7.70;99.90;;;;;;5033729;28;20442;-72
2021/12/19 01:55:24;;;;;;;5.05;0.80;;;7.70;99.90;;;;;;5034197;28;20053;-73
2021/12/19 01:57:50;;;;;;;4.28;0.82;;;7.80;99.90;;;;;;5000447;28;20059;-72
2021/12/19 02:00:26;;;;;;;4.68;1.50;;;7.70;99.90;;;;;;5016465;28;20268;-74
2021/12/19 02:02:52;;;;;;;10.10;0.80;;;7.70;99.90;;;;;;5034059;28;20041;-74
2021/12/19 02:05:18;;;;;;;4.35;0.70;;;7.70;99.90;;;;;;5033948;28;20059;-72
2021/12/19 02:07:47;;;;;;;7.05;1.63;;;7.70;99.90;;;;;;5033958;28;20045;-72
2021/12/19 02:10:17;;;;;;;9.52;0.70;;;7.70;99.90;;;;;;5033645;28;20052;-74
2021/12/19 02:12:44;;;;;;;3.78;0.70;;;7.70;99.90;;;;;;5015858;28;20065;-74
2021/12/19 02:15:11;;;;;;;3.50;0.80;;;7.70;99.90;;;;;;5033445;28;20064;-74
2021/12/19 02:17:37;;;;;;;4.30;0.80;;;7.60;99.90;;;;;;5033468;28;20068;-73
2021/12/19 02:20:04;;;;;;;3.40;0.80;;;7.60;99.90;;;;;;5016085;28;20049;-74
2021/12/19 02:22:29;;;;;;;3.58;0.77;;;7.60;99.90;;;;;;5033487;28;20049;-73
2021/12/19 02:24:55;;;;;;;3.90;0.70;;;7.60;99.90;;;;;;5033164;28;20390;-74
2021/12/19 02:27:26;;;;;;;4.90;0.68;;;7.60;99.90;;;;;;5016295;28;20432;-74
2021/12/19 02:29:52;;;;;;;5.40;0.95;;;7.80;99.90;;;;;;5015963;28;20053;-74
2021/12/19 02:32:17;;;;;;;3.03;0.73;;;7.50;99.90;;;;;;5033275;28;20041;-74
2021/12/19 02:34:46;;;;;;;5.07;0.63;;;7.50;99.90;;;;;;5032914;28;20383;-73
2021/12/19 02:37:43;;;;;;;6.95;0.80;;;7.50;99.90;;;;;;5033426;28;20056;-73
2021/12/19 02:48:11;;;;;;;2.70;0.90;;;7.40;99.90;;;;;;5033126;28;20092;-72
2021/12/19 02:50:46;;;;;;;2.78;0.70;;;7.40;99.90;;;;;;5015624;28;20080;-74
2021/12/19 02:53:11;;;;;;;4.45;0.70;;;7.40;99.90;;;;;;5015404;28;20091;-72
2021/12/19 02:55:37;;;;;;;3.78;0.82;;;7.40;99.90;;;;;;5032767;28;20049;-72
2021/12/19 02:58:03;;;;;;;4.95;0.80;;;7.40;99.90;;;;;;5016017;28;20395;-72
2021/12/19 03:00:29;;;;;;;5.55;0.90;;;7.50;99.90;;;;;;5015427;28;20049;-73
2021/12/19 03:02:54;;;;;;;4.22;1.08;;;7.40;99.90;;;;;;5032568;28;20100;-73
2021/12/19 03:05:21;;;;;;;4.78;0.75;;;7.30;99.90;;;;;;5015041;28;20053;-72
2021/12/19 03:07:49;;;;;;;6.05;1.10;;;7.30;99.90;;;;;;5032809;28;20048;-73
2021/12/19 03:18:30;;;;;;;6.80;1.85;;;7.40;99.90;;;;;;5032980;28;20045;-72
2021/12/19 03:20:56;;;;;;;8.27;1.83;;;7.30;99.90;;;;;;5033078;28;20084;-73
2021/12/19 03:23:22;;;;;;;10.68;2.30;;;7.30;99.90;;;;;;5032855;28;20386;-73
2021/12/19 03:25:48;;;;;;;6.88;1.38;;;7.30;99.90;;;;;;4998105;28;20057;-73
2021/12/19 03:28:14;;;;;;;4.90;1.50;;;7.30;99.90;;;;;;5032584;28;20424;-72
2021/12/19 03:30:43;;;;;;;7.93;1.17;;;7.40;99.90;;;;;;5032639;28;20442;-73
2021/12/19 03:33:10;;;;;;;3.97;1.10;;;7.30;99.90;;;;;;5032644;28;20422;-73
2021/12/19 03:35:37;;;;;;;5.72;0.77;;;7.40;99.90;;;;;;5032557;28;20368;-72
2021/12/19 03:38:05;;;;;;;2.85;0.73;;;7.40;99.90;;;;;;5032339;28;20037;-72
2021/12/19 03:40:39;;;;;;;5.63;0.80;;;7.40;99.90;;;;;;5014329;28;20129;-72
2021/12/19 03:43:14;;;;;;;3.17;1.05;;;7.90;99.90;;;;;;5032173;28;20042;-73
2021/12/19 03:45:42;;;;;;;3.42;0.70;;;7.40;99.90;;;;;;5031635;28;20053;-72
2021/12/19 03:48:11;;;;;;;3.10;0.90;;;7.40;99.90;;;;;;5015376;28;20045;-72
2021/12/19 03:50:37;;;;;;;4.35;0.90;;;7.40;99.90;;;;;;5015111;28;20049;-73
2021/12/19 03:53:03;;;;;;;4.28;1.10;;;7.30;99.90;;;;;;5015122;28;20145;-74
2021/12/19 03:55:29;;;;;;;10.02;1.60;;;7.30;99.90;;;;;;5014445;28;20124;-73
2021/12/19 03:57:59;;;;;;;6.68;1.50;;;7.40;99.90;;;;;;5032524;28;20116;-73
2021/12/19 04:00:27;;;;;;;4.20;1.52;;;7.40;99.90;;;;;;5015025;28;20041;-73
2021/12/19 04:02:55;;;;;;;16.35;1.85;;;7.40;99.90;;;;;;5035258;28;20450;-73
2021/12/19 04:05:22;;;;;;;8.23;3.47;;;7.40;99.90;;;;;;5018471;28;20071;-73
2021/12/19 04:07:48;;;;;;;14.35;3.05;;;7.40;99.90;;;;;;5018466;28;20049;-73
2021/12/19 04:10:14;;;;;;;11.70;2.85;;;7.50;99.90;;;;;;5036017;28;20037;-74
2021/12/19 04:12:42;;;;;;;11.77;3.05;;;7.50;99.90;;;;;;5018292;28;20347;-72
2021/12/19 04:15:09;;;;;;;15.05;3.13;;;7.50;99.90;;;;;;5035765;28;20059;-73
2021/12/19 04:17:34;;;;;;;15.70;4.00;;;7.40;99.90;;;;;;5018535;28;20432;-74
2021/12/19 04:20:00;;;;;;;23.65;3.47;;;7.50;99.90;;;;;;5035949;28;20060;-72
2021/12/19 04:22:26;;;;;;;12.15;3.45;;;7.70;99.90;;;;;;5035876;28;20045;-72
2021/12/19 04:24:51;;;;;;;17.58;3.80;;;7.70;99.90;;;;;;5035544;28;20087;-71
2021/12/19 04:27:18;;;;;;;18.00;3.78;;;7.90;99.90;;;;;;5035637;28;20077;-74
2021/12/19 04:29:44;;;;;;;14.82;4.43;;;7.70;99.90;;;;;;5035429;28;20678;-73
2021/12/19 04:32:11;;;;;;;19.63;4.82;;;7.70;99.90;;;;;;5018271;28;20132;-73
2021/12/19 04:34:37;;;;;;;27.58;5.65;;;7.80;99.90;;;;;;5035467;28;20045;-73
2021/12/19 04:37:12;;;;;;;21.05;5.15;;;7.70;99.90;;;;;;5035389;28;20044;-73
2021/12/19 04:39:52;;;;;;;25.52;5.65;;;7.60;99.90;;;;;;5017835;28;20427;-74
2021/12/19 04:53:25;;;;;;;21.15;6.47;;;7.60;99.90;;;;;;5035449;28;19921;-74
2021/12/19 04:58:53;;;;;;;31.80;6.68;;;7.60;99.90;;;;;;5035107;28;20056;-73
2021/12/19 05:14:06;;;;;;;26.05;7.88;;;7.60;99.90;;;;;;5035051;28;20073;-73
2021/12/19 05:14:46;;;;;;;20.52;7.72;;;7.60;99.90;;;;;;5034634;28;20056;-71
2021/12/19 05:17:18;;;;;;;29.25;8.45;;;7.60;99.90;;;;;;5034934;28;20041;-74
2021/12/19 05:19:49;;;;;;;27.08;9.43;;;7.60;99.90;;;;;;5034750;28;20057;-73
2021/12/19 05:22:15;;;;;;;32.38;9.85;;;7.60;99.90;;;;;;5017472;28;20053;-73
2021/12/19 05:25:01;;;;;;;32.92;9.30;;;8.10;99.90;;;;;;5017180;28;20055;-74
2021/12/19 05:27:27;;;;;;;25.38;9.10;;;7.60;99.90;;;;;;5017030;28;20371;-72
2021/12/19 05:29:52;;;;;;;29.55;8.80;;;7.60;99.90;;;;;;5016851;28;20120;-72
2021/12/19 05:32:18;;;;;;;28.00;9.98;;;7.60;99.90;;;;;;5034635;28;20128;-73
2021/12/19 05:34:44;;;;;;;24.08;8.77;;;7.60;99.90;;;;;;5034397;28;20040;-74
2021/12/19 05:45:22;;;;;;;24.83;7.82;;;7.60;99.90;;;;;;5034072;28;19928;-73
2021/12/19 05:47:51;;;;;;;27.40;7.30;;;7.60;99.90;;;;;;5034164;28;20368;-72
2021/12/19 05:50:22;;;;;;;26.42;7.70;;;7.60;99.90;;;;;;5034238;28;20144;-73
2021/12/19 05:52:49;;;;;;;21.00;6.70;;;7.60;99.90;;;;;;5033932;28;20056;-72
2021/12/19 05:55:16;;;;;;;23.27;7.03;;;7.60;99.90;;;;;;5016550;28;20077;-72
2021/12/19 05:57:42;;;;;;;22.90;6.72;;;7.60;99.90;;;;;;5033640;28;20120;-72
2021/12/19 06:00:12;;;;;;;31.10;7.60;;;7.60;99.90;;;;;;5033846;28;20128;-72
2021/12/19 06:02:40;;;;;;;19.80;6.70;;;7.60;99.90;;;;;;5033913;28;20132;-72
2021/12/19 06:05:07;;;;;;;20.20;7.22;;;7.60;99.90;;;;;;5034092;28;20037;-72
2021/12/19 06:07:33;;;;;;;27.85;7.28;;;7.60;99.90;;;;;;5016376;28;20048;-72
2021/12/19 06:09:59;;;;;;;24.67;7.50;;;7.60;99.90;;;;;;5033578;28;20053;-72
2021/12/19 06:12:25;;;;;;;18.70;7.35;;;7.60;99.90;;;;;;5033639;28;20042;-72
2021/12/19 06:14:51;;;;;;;22.23;7.25;;;7.60;99.90;;;;;;5016217;28;20088;-74
2021/12/19 06:17:16;;;;;;;21.45;7.38;;;7.60;99.90;;;;;;5033419;28;20077;-73
2021/12/19 06:19:42;;;;;;;24.80;7.28;;;7.60;99.90;;;;;;5015981;28;20049;-74
2021/12/19 06:22:08;;;;;;;21.25;6.90;;;7.60;99.90;;;;;;5033567;28;20056;-73
2021/12/19 06:24:34;;;;;;;25.23;6.50;;;7.60;99.90;;;;;;5033062;28;20439;-74
2021/12/19 06:27:01;;;;;;;30.60;6.47;;;7.60;99.90;;;;;;5015769;28;20045;-74
2021/12/19 06:29:28;;;;;;;33.00;7.18;;;7.60;99.90;;;;;;5015789;28;20052;-72
2021/12/19 06:31:54;;;;;;;26.75;6.40;;;7.60;99.90;;;;;;5016156;28;20041;-72
2021/12/19 06:34:20;;;;;;;22.40;5.90;;;7.60;99.90;;;;;;5015817;28;20041;-73
2021/12/19 06:36:45;;;;;;;23.17;5.30;;;7.60;99.90;;;;;;5033801;28;20045;-73
2021/12/19 06:39:11;;;;;;;28.80;5.97;;;7.70;99.90;;;;;;4998749;28;20057;-72
2021/12/19 06:41:37;;;;;;;25.52;5.72;;;7.60;99.90;;;;;;5033282;28;20048;-73
2021/12/19 06:44:03;;;;;;;22.42;5.18;;;7.60;99.90;;;;;;5028993;28;20057;-74
2021/12/19 06:46:30;;;;;;;14.57;4.47;;;7.60;99.90;;;;;;4995774;28;20061;-73
2021/12/19 06:48:56;;;;;;;20.40;4.70;;;7.60;99.90;;;;;;4996066;28;20045;-73
2021/12/19 06:51:22;;;;;;;20.08;4.25;;;7.60;99.90;;;;;;5013508;28;20069;-74
2021/12/19 06:53:48;;;;;;;13.45;3.97;;;7.60;99.90;;;;;;5013419;28;20434;-74
2021/12/19 06:56:14;;;;;;;26.10;4.10;;;7.60;99.90;;;;;;4996006;28;20132;-75
2021/12/19 06:58:40;;;;;;;17.05;5.05;;;7.60;99.90;;;;;;5013302;28;20113;-74
2021/12/19 07:01:06;;;;;;;19.63;4.05;;;7.60;99.90;;;;;;5013374;28;20038;-74
2021/12/19 07:03:32;;;;;;;13.45;3.47;;;7.60;99.90;;;;;;5012775;28;20042;-74
2021/12/19 07:05:59;;;;;;;17.20;4.40;;;7.60;99.90;;;;;;4995798;28;20041;-74
2021/12/19 07:08:25;;;;;;;16.08;3.88;;;7.60;99.90;;;;;;5013291;28;20077;-74
2021/12/19 07:10:51;;;;;;;24.60;5.45;;;7.60;99.90;;;;;;5013112;28;20068;-75
2021/12/19 07:13:20;;;;;;;23.83;4.50;;;7.60;99.90;;;;;;4995669;28;20455;-74
2021/12/19 07:15:50;;;;;;;17.02;4.10;;;7.60;99.90;;;;;;5013071;28;20045;-73
2021/12/19 07:18:16;;;;;;;19.52;4.30;;;7.60;99.90;;;;;;5013331;28;20042;-73
2021/12/19 07:20:42;;;;;;;29.73;3.88;;;7.60;99.90;;;;;;5013022;28;20045;-73
2021/12/19 07:23:13;;;;;;;22.23;4.88;;;7.60;99.90;;;;;;5013015;28;20424;-74
2021/12/19 07:25:39;;;;;;;20.95;5.22;;;7.60;99.90;;;;;;5011797;28;20041;-74
2021/12/19 07:28:05;;;;;;;23.55;5.60;;;7.60;99.90;;;;;;5012961;28;20130;-73
2021/12/19 07:30:31;;;;;;;32.13;4.85;;;7.60;99.90;;;;;;5012191;28;20336;-74
2021/12/19 07:32:58;;;;;;;30.70;4.43;;;7.60;99.90;;;;;;4995253;28;20076;-75
2021/12/19 07:35:24;;;;;;;28.17;4.38;;;7.70;99.90;;;;;;5012780;28;20050;-73
2021/12/19 07:37:52;;;;;;;19.13;4.70;;;7.70;99.90;;;;;;5015796;28;20494;-73
2021/12/19 07:40:20;;;;;;;20.20;4.78;;;7.70;99.90;;;;;;5017010;28;20077;-73
2021/12/19 07:42:47;;;;;;;21.52;4.80;;;7.60;99.90;;;;;;5016793;28;20056;-73
2021/12/19 07:45:14;;;;;;;26.75;4.15;;;7.70;99.90;;;;;;5029806;28;20065;-73
2021/12/19 07:47:41;;;;;;;20.83;4.32;;;7.70;99.90;;;;;;5036420;28;20046;-74
2021/12/19 07:50:08;;;;;;;34.15;5.15;;;7.70;99.90;;;;;;5018597;28;20041;-73
2021/12/19 07:52:34;;;;;;;28.33;4.75;;;7.70;99.90;;;;;;5036402;28;20435;-74
2021/12/19 07:55:00;;;;;;;23.90;4.43;;;7.70;99.90;;;;;;5018439;28;20048;-75
2021/12/19 07:57:26;;;;;;;28.00;4.72;;;7.60;99.90;;;;;;5035945;28;20042;-73
2021/12/19 07:59:51;;;;;;;22.40;4.70;;;7.70;99.90;;;;;;5036235;28;20049;-73
2021/12/19 08:02:17;;;;;;;22.02;4.63;;;7.70;99.90;;;;;;5036252;28;20042;-73
2021/12/19 08:04:43;;;;;;;27.73;5.07;;;7.70;99.90;;;;;;5017256;28;20320;-74
2021/12/19 08:07:11;;;;;;;18.15;4.60;;;7.80;99.90;;;;;;5018661;28;20051;-73
2021/12/19 08:09:57;;;;;;;22.27;5.55;;;8.20;99.90;;;;;;5036357;28;20042;-72
2021/12/19 08:12:23;;;;;;;28.77;4.15;;;7.70;99.90;;;;;;5035599;28;20048;-73
2021/12/19 08:14:49;;;;;;;15.05;3.58;;;7.70;99.90;;;;;;5035781;28;20037;-74
2021/12/19 08:17:14;;;;;;;23.40;4.30;;;7.70;99.90;;;;;;5018428;28;20096;-74
2021/12/19 08:19:40;;;;;;;16.65;3.88;;;7.80;99.90;;;;;;5035828;28;20118;-74
2021/12/19 08:22:06;;;;;;;25.77;4.45;;;7.70;99.90;;;;;;5018611;28;20049;-75
2021/12/19 08:24:31;;;;;;;15.60;3.47;;;7.70;99.90;;;;;;5018228;28;20057;-74
2021/12/19 08:26:57;;;;;;;14.68;3.75;;;7.70;99.90;;;;;;5035475;28;20048;-74
2021/12/19 08:29:23;;;;;;;16.65;4.13;;;7.70;99.90;;;;;;5036130;28;20045;-72
2021/12/19 08:31:48;;;;;;;19.65;3.75;;;7.70;99.90;;;;;;5017922;28;20128;-73
2021/12/19 08:34:14;;;;;;;22.88;5.07;;;7.70;99.90;;;;;;5035282;28;20048;-74
2021/12/19 08:36:40;;;;;;;23.67;3.65;;;7.80;99.90;;;;;;5035460;28;20338;-73
2021/12/19 08:39:06;;;;;;;34.10;4.65;;;7.80;99.90;;;;;;5035619;28;20069;-74
2021/12/19 08:41:32;;;;;;;20.60;3.97;;;7.80;99.90;;;;;;5034957;28;20037;-72
2021/12/19 08:43:57;;;;;;;20.23;4.18;;;7.80;99.90;;;;;;5035239;28;20049;-73
2021/12/19 08:46:24;;;;;;;22.63;4.35;;;7.80;99.90;;;;;;5033838;28;20049;-75
2021/12/19 08:48:50;;;;;;;21.58;3.85;;;7.80;99.90;;;;;;5033872;28;20053;-73
2021/12/19 08:51:16;;;;;;;22.40;4.03;;;7.80;99.90;;;;;;5015977;28;20332;-72
2021/12/19 08:53:41;;;;;;;25.30;4.03;;;7.80;99.90;;;;;;5034221;28;20048;-73
2021/12/19 08:56:07;;;;;;;21.52;3.88;;;7.80;99.90;;;;;;5031931;28;20037;-73
2021/12/19 08:58:33;;;;;;;24.67;4.00;;;7.80;99.90;;;;;;5051390;28;20036;-72
2021/12/19 09:01:01;;;;;;;20.67;4.22;;;7.80;99.90;;;;;;5027328;28;20216;-73
2021/12/19 09:03:29;;;;;;;16.42;3.47;;;7.90;99.90;;;;;;5031907;28;20045;-73
2021/12/19 09:05:57;;;;;;;26.15;4.05;;;7.90;99.90;;;;;;5018016;28;20049;-73
2021/12/19 09:08:22;;;;;;;23.67;4.22;;;7.90;99.90;;;;;;5034239;28;20056;-74
2021/12/19 09:10:48;;;;;;;22.83;4.80;;;8.40;99.90;;;;;;5048215;28;20060;-75
2021/12/19 09:13:14;;;;;;;25.67;3.70;;;7.90;99.90;;;;;;5052629;28;20123;-74
2021/12/19 09:15:40;;;;;;;27.38;4.75;;;7.90;99.90;;;;;;5052491;28;20076;-73
2021/12/19 09:18:06;;;;;;;30.63;4.25;;;7.90;99.90;;;;;;5018972;28;20060;-73
2021/12/19 09:20:31;;;;;;;17.73;3.67;;;8.00;99.90;;;;;;5052524;28;20053;-74
2021/12/19 09:22:57;;;;;;;34.05;6.07;;;7.90;99.90;;;;;;5053058;28;20040;-72
2021/12/19 09:25:23;;;;;;;25.10;4.63;;;8.00;99.90;;;;;;5052850;28;20052;-73
2021/12/19 09:27:49;;;;;;;20.35;4.30;;;8.00;99.90;;;;;;5052406;28;20057;-74
2021/12/19 09:30:15;;;;;;;21.55;3.40;;;8.00;99.90;;;;;;5018559;28;20103;-73
2021/12/19 09:32:40;;;;;;;20.50;4.40;;;8.00;99.90;;;;;;5052751;28;20041;-72
2021/12/19 09:35:07;;;;;;;18.30;4.45;;;8.00;99.90;;;;;;5053269;28;20212;-73
2021/12/19 09:37:35;;;;;;;24.38;4.45;;;8.00;99.90;;;;;;5052813;28;20171;-73
2021/12/19 09:40:07;;;;;;;22.45;4.63;;;8.00;99.90;;;;;;5035028;28;20051;-73
2021/12/19 09:42:35;;;;;;;34.90;6.40;;;8.00;99.90;;;;;;5018223;28;20045;-74
2021/12/19 09:45:03;;;;;;;26.85;4.63;;;8.00;99.90;;;;;;4979555;28;1131910;-74
2021/12/19 09:47:30;;;;;;;34.22;6.72;;;8.00;99.90;;;;;;5053154;28;20056;-74
2021/12/19 09:49:57;;;;;;;25.38;4.95;;;8.10;99.90;;;;;;5053405;28;20347;-73
2021/12/19 09:52:24;;;;;;;28.08;4.80;;;8.10;99.90;;;;;;5035905;28;20044;-73
2021/12/19 09:54:50;;;;;;;36.28;6.07;;;8.00;99.90;;;;;;5053806;28;20041;-73
2021/12/19 09:57:16;;;;;;;31.70;5.45;;;8.10;99.90;;;;;;5053181;28;20140;-74
2021/12/19 09:59:43;;;;;;;29.05;4.60;;;8.10;99.90;;;;;;5053092;28;20044;-73
2021/12/19 10:02:09;;;;;;;23.60;4.60;;;8.10;99.90;;;;;;5019020;28;20504;-72
2021/12/19 10:04:39;;;;;;;20.83;4.15;;;8.10;99.90;;;;;;5019191;28;20486;-72
2021/12/19 10:07:17;;;;;;;24.23;3.75;;;8.20;99.90;;;;;;5019191;28;20045;-73
2021/12/19 10:10:01;;;;;;;24.33;3.97;;;8.20;99.90;;;;;;5019090;28;20507;-73
2021/12/19 10:12:38;;;;;;;18.75;3.60;;;8.20;99.90;;;;;;5053033;28;20045;-73
2021/12/19 10:15:04;;;;;;;14.10;2.90;;;8.10;99.90;;;;;;5035942;28;20448;-72
2021/12/19 10:17:30;;;;;;;20.95;4.00;;;8.20;99.90;;;;;;5053212;28;20044;-73
2021/12/19 10:20:02;;;;;;;20.45;3.85;;;8.10;99.90;;;;;;5034677;28;20061;-74
2021/12/19 10:22:35;;;;;;;20.05;3.40;;;8.20;99.90;;;;;;5052027;28;20045;-74
2021/12/19 10:25:10;;;;;;;15.55;3.10;;;8.20;99.90;;;;;;5034079;28;20087;-76
2021/12/19 10:27:42;;;;;;;16.50;3.05;;;8.20;99.90;;;;;;5052789;28;20053;-73
2021/12/19 10:30:16;;;;;;;19.40;3.15;;;8.20;99.90;;;;;;5038369;28;20084;-74
2021/12/19 10:32:50;;;;;;;16.55;3.20;;;8.20;99.90;;;;;;5024755;28;20457;-72
2021/12/19 10:35:24;;;;;;;15.95;2.95;;;8.20;99.90;;;;;;5032528;28;20071;-73
2021/12/19 10:37:50;;;;;;;15.65;3.88;;;8.20;99.90;;;;;;5032863;28;20111;-72
2021/12/19 10:40:16;;;;;;;22.60;2.97;;;8.20;99.90;;;;;;5033270;28;20377;-74
2021/12/19 10:43:03;;;;;;;17.13;3.47;;;8.30;99.90;;;;;;5032736;28;20489;-72
2021/12/19 10:45:52;;;;;;;24.15;3.60;;;7.40;99.90;;;;;;5032086;28;20066;-73
2021/12/19 10:48:25;;;;;;;17.73;4.10;;;8.30;99.90;;;;;;4998687;28;20128;-73
2021/12/19 10:50:54;;;;;;;14.27;3.60;;;8.30;99.90;;;;;;5032626;28;20045;-74
2021/12/19 10:53:54;;;;;;;18.67;2.92;;;8.30;99.90;;;;;;5032635;28;20128;-74
2021/12/19 10:56:29;;;;;;;16.70;3.33;;;8.30;99.90;;;;;;4951965;28;20065;-74
2021/12/19 10:59:07;;;;;;;16.42;3.40;;;8.70;99.90;;;;;;4935737;29;20138;-73
2021/12/19 11:01:38;;;;;;;26.88;3.13;;;8.40;99.90;;;;;;4951939;29;20046;-72
2021/12/19 11:04:14;;;;;;;22.20;3.60;;;8.40;99.90;;;;;;4951805;29;20070;-73
2021/12/19 11:06:49;;;;;;;19.70;3.67;;;8.40;99.90;;;;;;4951677;28;20137;-74
2021/12/19 11:09:27;;;;;;;27.25;4.72;;;8.40;99.90;;;;;;4935291;29;20051;-73
2021/12/19 11:12:03;;;;;;;17.80;3.40;;;8.40;99.90;;;;;;4935757;29;20098;-72
2021/12/19 11:14:51;;;;;;;23.10;3.85;;;8.40;99.90;;;;;;4935402;28;20061;-72
2021/12/19 11:17:28;;;;;;;20.60;3.42;;;8.40;99.90;;;;;;4935488;29;20047;-72
2021/12/19 11:19:55;;;;;;;24.05;4.78;;;8.40;99.90;;;;;;4952232;29;20600;-71
2021/12/19 11:22:25;;;;;;;29.00;3.88;;;8.40;99.90;;;;;;4935957;29;20047;-72
2021/12/19 11:24:59;;;;;;;23.83;4.00;;;8.40;99.90;;;;;;4936306;29;20051;-72
2021/12/19 11:27:26;;;;;;;20.13;4.15;;;8.50;99.90;;;;;;4956825;28;20194;-71
2021/12/19 11:29:53;;;;;;;18.77;4.32;;;8.50;99.90;;;;;;4944824;28;20042;-75
2021/12/19 11:32:43;;;;;;;26.05;3.75;;;8.50;99.90;;;;;;4984686;28;21084;-73
2021/12/19 11:35:18;;;;;;;28.02;5.97;;;8.50;99.90;;;;;;5012402;28;20096;-73
2021/12/19 11:37:50;;;;;;;22.98;4.85;;;8.50;99.90;;;;;;5012054;28;20050;-74
2021/12/19 11:40:18;;;;;;;34.97;5.55;;;8.60;99.90;;;;;;5011495;28;20509;-75
2021/12/19 11:42:44;;;;;;;25.83;4.75;;;8.60;99.90;;;;;;5011282;28;20128;-73
2021/12/19 11:48:09;;;;;;;36.20;5.55;;;8.60;99.90;;;;;;4994771;28;20053;-75
2021/12/19 11:50:56;;;;;;;41.72;4.72;;;8.60;99.90;;;;;;5012145;28;20061;-73
2021/12/19 11:53:26;;;;;;;25.25;4.15;;;8.60;99.90;;;;;;4995252;28;20041;-74
2021/12/19 11:55:55;;;;;;;32.08;4.55;;;8.60;99.90;;;;;;5012011;28;20458;-74
2021/12/19 11:58:27;;;;;;;24.77;5.43;;;8.60;99.90;;;;;;4994266;28;20049;-74
2021/12/19 12:00:52;;;;;;;26.73;4.65;;;8.60;99.90;;;;;;5012306;28;20720;-73
2021/12/19 12:03:21;;;;;;;20.67;4.60;;;8.60;99.90;;;;;;4994600;28;20104;-74
2021/12/19 12:06:24;;;;;;;27.48;4.40;;;8.70;99.90;;;;;;4994505;28;20092;-73
2021/12/19 12:09:07;;;;;;;25.58;4.55;;;8.60;99.90;;;;;;5011913;28;20054;-73
2021/12/19 12:11:36;;;;;;;38.47;5.38;;;8.70;99.90;;;;;;4994356;28;20061;-74
2021/12/19 12:14:23;;;;;;;28.58;4.55;;;8.70;99.90;;;;;;5011745;28;20155;-74
2021/12/19 12:16:55;;;;;;;28.85;4.70;;;8.70;99.90;;;;;;5012755;28;20467;-73
2021/12/19 12:19:49;;;;;;;32.95;5.15;;;8.70;99.90;;;;;;5012252;28;20120;-72
2021/12/19 12:25:05;;;;;;;31.85;4.82;;;8.70;99.90;;;;;;4998980;28;20077;-73
2021/12/19 12:27:43;;;;;;;23.35;5.07;;;8.70;99.90;;;;;;5016680;28;20042;-73
2021/12/19 12:30:14;;;;;;;22.17;3.63;;;8.70;99.90;;;;;;4998688;28;20056;-74
2021/12/19 12:32:40;;;;;;;37.30;5.22;;;8.70;99.90;;;;;;5016147;28;20041;-73
2021/12/19 12:35:07;;;;;;;29.40;5.00;;;8.60;99.90;;;;;;4998848;28;20076;-73
2021/12/19 12:37:33;;;;;;;34.22;4.75;;;8.60;99.90;;;;;;5016334;28;20075;-74
2021/12/19 12:40:27;;;;;;;37.85;4.57;;;8.60;99.90;;;;;;5015671;28;20052;-74
2021/12/19 12:43:00;;;;;;;30.55;5.47;;;8.50;99.90;;;;;;5016023;28;20120;-75
2021/12/19 12:45:28;;;;;;;28.15;4.65;;;8.60;99.90;;;;;;4998244;28;20061;-75
2021/12/19 12:47:54;;;;;;;34.03;3.80;;;8.50;99.90;;;;;;4998510;28;20058;-73
2021/12/19 12:50:20;;;;;;;25.05;4.07;;;8.60;99.90;;;;;;5015658;28;20057;-73
2021/12/19 12:52:46;;;;;;;29.70;4.63;;;8.60;99.90;;;;;;5015881;28;20149;-73
2021/12/19 12:55:14;;;;;;;23.33;4.82;;;8.60;99.90;;;;;;5015782;28;20116;-74
2021/12/19 12:57:41;;;;;;;33.28;5.10;;;8.60;99.90;;;;;;5015982;28;20048;-73
2021/12/19 13:00:17;;;;;;;27.92;4.28;;;8.50;99.90;;;;;;5015554;28;20037;-74
2021/12/19 13:02:44;;;;;;;26.85;4.00;;;8.50;99.90;;;;;;5015847;28;20184;-74
2021/12/19 13:05:12;;;;;;;31.55;5.32;;;8.50;99.90;;;;;;5015287;28;20436;-73
2021/12/19 13:07:38;;;;;;;30.73;5.32;;;8.50;99.90;;;;;;5014877;28;20077;-75
2021/12/19 13:10:05;;;;;;;34.67;4.22;;;8.50;99.90;;;;;;5015152;28;20049;-73
2021/12/19 13:12:34;;;;;;;28.80;4.80;;;8.50;99.90;;;;;;5014770;28;20324;-74
2021/12/19 13:15:12;;;;;;;35.92;4.78;;;8.50;99.90;;;;;;5014788;28;20128;-74
2021/12/19 13:17:40;;;;;;;28.08;4.63;;;8.50;99.90;;;;;;5014547;28;20092;-74
2021/12/19 13:20:25;;;;;;;24.83;4.43;;;8.50;99.90;;;;;;5014254;28;20089;-74
2021/12/19 13:22:59;;;;;;;27.42;4.13;;;8.50;99.90;;;;;;5014430;28;20045;-73
2021/12/19 13:25:37;;;;;;;32.03;6.07;;;8.50;99.90;;;;;;5014288;28;20041;-74
2021/12/19 13:28:05;;;;;;;27.88;4.63;;;8.50;99.90;;;;;;5014573;28;20040;-74
2021/12/19 13:30:42;;;;;;;29.60;5.03;;;8.60;99.90;;;;;;5013494;28;20124;-75
2021/12/19 13:33:29;;;;;;;25.80;4.28;;;8.60;99.90;;;;;;5014207;28;20069;-74
2021/12/19 13:35:56;;;;;;;26.90;4.05;;;8.60;99.90;;;;;;5012986;28;20049;-74
2021/12/19 13:38:27;;;;;;;28.38;4.60;;;8.70;99.90;;;;;;5014400;28;20045;-74
2021/12/19 13:41:00;;;;;;;41.30;4.78;;;8.90;99.90;;;;;;5013946;28;20313;-75
2021/12/19 13:43:28;;;;;;;18.95;4.13;;;8.60;99.90;;;;;;5014081;28;20092;-72
2021/12/19 13:45:56;;;;;;;27.73;6.18;;;8.70;99.90;;;;;;5013520;28;20053;-74
2021/12/19 13:48:27;;;;;;;34.63;3.95;;;8.70;99.90;;;;;;4996386;28;20050;-73
2021/12/19 13:50:58;;;;;;;27.63;4.82;;;8.60;99.90;;;;;;5014443;28;20108;-74
2021/12/19 13:53:26;;;;;;;26.27;4.03;;;8.70;99.90;;;;;;5032077;28;20037;-72
2021/12/19 13:55:56;;;;;;;27.35;4.20;;;8.60;99.90;;;;;;5024464;28;20127;-74
2021/12/19 13:58:22;;;;;;;25.40;4.32;;;8.60;99.90;;;;;;5039283;28;20033;-75